createdAt,value
2023-02-18T00:01:17.544Z,16.14
2023-02-18T00:03:43.871Z,15.42
2023-02-18T00:06:10.172Z,15.94
2023-02-18T00:08:36.464Z,16.12
2023-02-18T00:11:02.741Z,17.85
2023-02-18T00:13:29.028Z,17.77
2023-02-18T00:15:55.313Z,17.44
2023-02-18T00:18:21.581Z,16.27
2023-02-18T00:20:47.841Z,16.10
2023-02-18T00:23:14.113Z,16.71
2023-02-18T00:25:40.380Z,16.12
2023-02-18T00:28:06.630Z,15.72
2023-02-18T00:30:32.929Z,15.88
2023-02-18T00:32:59.217Z,16.14
2023-02-18T00:35:25.469Z,15.68
2023-02-18T00:37:51.762Z,16.58
2023-02-18T00:40:18.091Z,16.28
2023-02-18T00:42:44.366Z,17.11
2023-02-18T00:45:10.640Z,16.91
2023-02-18T00:47:36.902Z,16.46
2023-02-18T00:50:03.274Z,15.88
2023-02-18T00:52:29.553Z,16.28
2023-02-18T00:54:55.822Z,16.17
2023-02-18T00:57:22.088Z,16.09
2023-02-18T00:59:48.380Z,16.65
2023-02-18T01:02:14.656Z,16.21
2023-02-18T01:04:41.024Z,15.23
2023-02-18T01:07:07.352Z,15.26
2023-02-18T01:09:33.646Z,15.19
2023-02-18T01:11:59.970Z,15.08
2023-02-18T01:14:26.249Z,15.30
2023-02-18T01:16:52.538Z,14.80
2023-02-18T01:19:18.810Z,14.75
2023-02-18T01:21:45.099Z,15.56
2023-02-18T01:24:11.398Z,15.51
2023-02-18T01:26:37.663Z,14.80
2023-02-18T01:29:03.966Z,14.86
2023-02-18T01:31:30.375Z,14.87
2023-02-18T01:33:56.751Z,15.07
2023-02-18T01:36:23.050Z,14.65
2023-02-18T01:38:49.338Z,15.72
2023-02-18T01:41:15.603Z,15.91
2023-02-18T01:43:41.897Z,16.00
2023-02-18T01:46:08.416Z,15.85
2023-02-18T01:48:34.862Z,16.30
2023-02-18T01:51:01.109Z,16.80
2023-02-18T01:53:27.385Z,16.41
2023-02-18T01:55:53.669Z,16.44
2023-02-18T01:58:19.930Z,17.10
2023-02-18T02:00:46.234Z,16.45
2023-02-18T02:03:12.513Z,16.61
2023-02-18T02:05:38.978Z,16.23
2023-02-18T02:08:05.230Z,16.37
2023-02-18T02:10:31.482Z,16.12
2023-02-18T02:12:57.793Z,15.85
2023-02-18T02:15:24.067Z,16.60
2023-02-18T02:17:50.360Z,16.64
2023-02-18T02:20:16.620Z,15.96
2023-02-18T02:22:42.878Z,16.47
2023-02-18T02:25:09.161Z,16.48
2023-02-18T02:27:35.431Z,15.69
2023-02-18T02:30:01.777Z,15.51
2023-02-18T02:32:28.082Z,15.02
2023-02-18T02:34:54.344Z,14.72
2023-02-18T02:37:20.629Z,15.20
2023-02-18T02:39:46.998Z,14.34
2023-02-18T02:42:13.264Z,14.49
2023-02-18T02:44:39.538Z,14.75
2023-02-18T02:47:05.800Z,14.12
2023-02-18T02:49:32.075Z,14.71
2023-02-18T02:51:58.359Z,14.57
2023-02-18T02:54:24.658Z,15.68
2023-02-18T02:56:50.917Z,15.20
2023-02-18T02:59:17.288Z,14.60
2023-02-18T03:01:43.546Z,14.89
2023-02-18T03:04:09.803Z,14.13
2023-02-18T03:06:36.074Z,14.82
2023-02-18T03:09:02.337Z,14.26
2023-02-18T03:11:28.597Z,14.64
2023-02-18T03:13:54.865Z,14.02
2023-02-18T03:16:21.182Z,14.21
2023-02-18T03:18:47.486Z,14.29
2023-02-18T03:21:13.741Z,13.96
2023-02-18T03:23:40.020Z,14.13
2023-02-18T03:26:06.456Z,14.18
2023-02-18T03:28:32.859Z,14.31
2023-02-18T03:30:59.191Z,13.92
2023-02-18T03:33:25.479Z,13.88
2023-02-18T03:35:51.722Z,14.57
2023-02-18T03:38:17.978Z,15.04
2023-02-18T03:40:44.246Z,14.93
2023-02-18T03:43:10.499Z,14.96
2023-02-18T03:45:36.811Z,15.14
2023-02-18T03:48:03.053Z,15.20
2023-02-18T03:50:29.322Z,14.06
2023-02-18T03:52:55.598Z,13.56
2023-02-18T03:55:21.880Z,14.05
2023-02-18T03:57:48.204Z,14.20
2023-02-18T04:00:14.487Z,13.99
2023-02-18T04:02:40.730Z,14.32
2023-02-18T04:05:06.987Z,13.76
2023-02-18T04:07:33.261Z,14.12
2023-02-18T04:09:59.552Z,12.91
2023-02-18T04:12:25.854Z,13.91
2023-02-18T04:14:52.152Z,13.86
2023-02-18T04:17:18.395Z,13.65
2023-02-18T04:19:44.689Z,13.88
2023-02-18T04:22:10.959Z,13.20
2023-02-18T04:24:37.252Z,14.33
2023-02-18T04:27:03.504Z,14.05
2023-02-18T04:29:29.918Z,13.52
2023-02-18T04:31:56.208Z,13.42
2023-02-18T04:34:22.485Z,14.18
2023-02-18T04:36:48.727Z,13.26
2023-02-18T04:39:14.985Z,14.36
2023-02-18T04:41:41.252Z,13.97
2023-02-18T04:44:07.508Z,13.28
2023-02-18T04:46:33.823Z,14.03
2023-02-18T04:49:00.171Z,14.07
2023-02-18T04:51:26.443Z,14.19
2023-02-18T04:53:52.769Z,14.21
2023-02-18T04:56:19.036Z,14.62
2023-02-18T04:58:45.286Z,14.47
2023-02-18T05:01:11.576Z,13.89
2023-02-18T05:03:37.834Z,14.25
2023-02-18T05:06:04.105Z,14.12
2023-02-18T05:08:30.486Z,14.08
2023-02-18T05:10:56.754Z,13.75
2023-02-18T05:13:23.018Z,14.33
2023-02-18T05:15:49.345Z,14.05
2023-02-18T05:18:15.637Z,13.86
2023-02-18T05:20:41.909Z,14.65
2023-02-18T05:23:08.191Z,14.15
2023-02-18T05:25:34.472Z,14.28
2023-02-18T05:28:00.742Z,14.24
2023-02-18T05:30:27.031Z,14.61
2023-02-18T05:32:53.367Z,14.47
2023-02-18T05:35:19.642Z,15.38
2023-02-18T05:37:45.885Z,15.52
2023-02-18T05:40:12.127Z,16.14
2023-02-18T05:42:38.397Z,14.94
2023-02-18T05:45:04.658Z,14.32
2023-02-18T05:47:30.936Z,15.26
2023-02-18T05:49:57.199Z,15.14
2023-02-18T05:52:23.464Z,14.92
2023-02-18T05:54:49.741Z,14.62
2023-02-18T05:57:16.017Z,14.74
2023-02-18T05:59:42.271Z,14.14
2023-02-18T06:02:08.560Z,14.19
2023-02-18T06:04:34.855Z,14.11
2023-02-18T06:07:01.140Z,12.78
2023-02-18T06:09:27.410Z,12.33
2023-02-18T06:11:53.678Z,12.35
2023-02-18T06:14:19.928Z,11.71
2023-02-18T06:16:46.195Z,12.05
2023-02-18T06:19:12.438Z,12.01
2023-02-18T06:21:38.715Z,12.29
2023-02-18T06:24:05.067Z,12.78
2023-02-18T06:26:31.352Z,12.05
2023-02-18T06:28:57.627Z,12.07
2023-02-18T06:31:23.958Z,11.03
2023-02-18T06:33:50.245Z,10.97
2023-02-18T06:36:16.518Z,10.42
2023-02-18T06:38:42.795Z,10.22
2023-02-18T06:41:09.086Z,10.38
2023-02-18T06:43:35.392Z,10.63
2023-02-18T06:46:01.660Z,10.65
2023-02-18T06:48:27.923Z,11.31
2023-02-18T06:50:54.209Z,10.70
2023-02-18T06:53:20.472Z,11.00
2023-02-18T06:55:46.733Z,11.68
2023-02-18T06:58:12.997Z,11.94
2023-02-18T07:00:39.297Z,12.23
2023-02-18T07:03:05.578Z,13.33
2023-02-18T07:05:31.874Z,13.97
2023-02-18T07:07:58.148Z,13.20
2023-02-18T07:10:24.429Z,13.29
2023-02-18T07:12:50.750Z,13.38
2023-02-18T07:15:17.028Z,13.59
2023-02-18T07:17:43.287Z,13.14
2023-02-18T07:20:09.565Z,13.07
2023-02-18T07:22:35.855Z,12.28
2023-02-18T07:25:02.147Z,11.91
2023-02-18T07:27:28.436Z,13.77
2023-02-18T07:29:54.709Z,15.60
2023-02-18T07:32:20.978Z,14.73
2023-02-18T07:34:47.239Z,15.00
2023-02-18T07:37:13.510Z,15.02
2023-02-18T07:39:39.758Z,16.34
2023-02-18T07:42:06.045Z,15.90
2023-02-18T07:44:32.298Z,16.06
2023-02-18T07:46:58.580Z,17.46
2023-02-18T07:49:24.848Z,17.85
2023-02-18T07:51:51.117Z,16.09
2023-02-18T07:54:17.400Z,16.07
2023-02-18T07:56:43.695Z,15.70
2023-02-18T07:59:09.965Z,15.86
2023-02-18T08:01:36.205Z,15.38
2023-02-18T08:04:02.528Z,15.77
2023-02-18T08:06:28.841Z,15.93
2023-02-18T08:08:55.090Z,15.76
2023-02-18T08:11:21.366Z,15.08
2023-02-18T08:13:47.628Z,15.55
2023-02-18T08:16:13.932Z,14.66
2023-02-18T08:18:40.219Z,13.97
2023-02-18T08:21:06.493Z,14.28
2023-02-18T08:23:32.766Z,14.28
2023-02-18T08:25:59.035Z,14.51
2023-02-18T08:28:25.304Z,14.69
2023-02-18T08:30:51.598Z,15.07
2023-02-18T08:33:17.933Z,15.32
2023-02-18T08:35:44.226Z,15.74
2023-02-18T08:38:10.508Z,15.82
2023-02-18T08:40:36.795Z,15.88
2023-02-18T08:43:03.104Z,15.13
2023-02-18T08:45:29.368Z,16.12
2023-02-18T08:48:17.648Z,15.33
2023-02-18T08:50:41.868Z,14.75
2023-02-18T08:53:08.173Z,14.12
2023-02-18T08:55:34.535Z,14.77
2023-02-18T08:58:00.816Z,14.29
2023-02-18T09:00:27.078Z,13.42
2023-02-18T09:02:53.359Z,12.81
2023-02-18T09:05:19.637Z,11.08
2023-02-18T09:07:45.893Z,11.24
2023-02-18T09:10:12.141Z,11.83
2023-02-18T09:12:38.422Z,11.53
2023-02-18T09:15:04.693Z,11.19
2023-02-18T09:17:30.957Z,10.97
2023-02-18T09:19:57.208Z,11.58
2023-02-18T09:22:23.494Z,11.17
2023-02-18T09:24:49.778Z,11.47
2023-02-18T09:27:16.114Z,11.23
2023-02-18T09:29:42.421Z,10.98
2023-02-18T09:32:08.764Z,11.56
2023-02-18T09:34:35.252Z,10.11
2023-02-18T09:37:01.523Z,9.95
2023-02-18T09:39:27.891Z,9.09
2023-02-18T09:41:54.165Z,8.27
2023-02-18T09:44:20.453Z,8.44
2023-02-18T09:46:46.776Z,7.99
2023-02-18T09:49:13.030Z,8.72
2023-02-18T09:51:39.293Z,9.04
2023-02-18T09:54:05.577Z,8.29
2023-02-18T09:56:31.818Z,8.46
2023-02-18T09:58:58.099Z,8.80
2023-02-18T10:01:24.394Z,8.84
2023-02-18T10:03:50.742Z,8.78
2023-02-18T10:06:17.021Z,9.32
2023-02-18T10:08:44.335Z,9.38
2023-02-18T10:11:10.825Z,9.34
2023-02-18T10:13:37.182Z,9.67
2023-02-18T10:16:03.538Z,10.10
2023-02-18T10:20:57.020Z,10.07
2023-02-18T10:23:23.322Z,9.83
2023-02-18T10:25:49.586Z,10.25
2023-02-18T10:28:15.841Z,9.81
2023-02-18T10:30:42.129Z,10.26
2023-02-18T10:33:08.405Z,10.10
2023-02-18T10:35:34.709Z,10.38
2023-02-18T10:38:00.968Z,9.64
2023-02-18T10:40:27.295Z,9.84
2023-02-18T10:42:53.540Z,9.94
2023-02-18T10:45:19.827Z,9.69
2023-02-18T10:47:46.106Z,9.24
2023-02-18T10:50:12.359Z,8.87
2023-02-18T10:52:38.611Z,9.48
2023-02-18T10:55:04.880Z,9.37
2023-02-18T10:57:31.177Z,9.84
2023-02-18T10:59:57.452Z,9.98
2023-02-18T11:02:23.738Z,10.49
2023-02-18T11:04:50.072Z,10.36
2023-02-18T11:07:16.366Z,10.29
2023-02-18T11:09:45.043Z,9.33
2023-02-18T11:12:12.790Z,9.57
2023-02-18T11:14:39.179Z,9.13
2023-02-18T11:17:05.446Z,8.33
2023-02-18T11:19:31.723Z,8.44
2023-02-18T11:21:58.012Z,8.42
2023-02-18T11:24:24.296Z,8.75
2023-02-18T11:26:50.572Z,9.02
2023-02-18T11:29:16.853Z,8.57
2023-02-18T11:31:43.178Z,7.66
2023-02-18T11:34:09.577Z,8.93
2023-02-18T11:36:35.826Z,9.40
2023-02-18T11:39:02.087Z,9.47
2023-02-18T11:41:28.341Z,10.23
2023-02-18T11:43:54.626Z,10.81
2023-02-18T11:46:20.940Z,11.37
2023-02-18T11:48:47.235Z,11.57
2023-02-18T11:51:13.503Z,10.49
2023-02-18T11:53:39.772Z,9.93
2023-02-18T11:56:06.041Z,10.13
2023-02-18T11:58:32.321Z,10.36
2023-02-18T12:00:58.792Z,9.95
2023-02-18T12:03:25.062Z,9.61
2023-02-18T12:05:51.346Z,9.52
2023-02-18T12:08:17.638Z,10.06
2023-02-18T12:10:44.069Z,10.58
2023-02-18T12:13:10.337Z,10.02
2023-02-18T12:15:36.598Z,9.38
2023-02-18T12:18:02.948Z,9.02
2023-02-18T12:20:29.237Z,9.08
2023-02-18T12:22:55.483Z,8.69
2023-02-18T12:25:21.734Z,9.35
2023-02-18T12:27:48.030Z,10.05
2023-02-18T12:30:14.317Z,10.74
2023-02-18T12:32:40.635Z,10.69
2023-02-18T12:35:06.902Z,10.50
2023-02-18T12:37:33.177Z,10.70
2023-02-18T12:39:59.434Z,11.14
2023-02-18T12:42:25.701Z,11.35
2023-02-18T12:44:52.078Z,11.56
2023-02-18T12:47:18.513Z,12.43
2023-02-18T12:49:44.811Z,11.85
2023-02-18T12:52:11.140Z,11.32
2023-02-18T12:54:37.397Z,11.69
2023-02-18T12:57:03.650Z,10.60
2023-02-18T12:59:29.914Z,10.06
2023-02-18T13:01:56.197Z,10.82
2023-02-18T13:04:22.464Z,12.30
2023-02-18T13:06:48.737Z,12.03
2023-02-18T13:09:15.029Z,11.46
2023-02-18T13:11:41.296Z,10.55
2023-02-18T13:14:07.613Z,9.17
2023-02-18T13:16:33.917Z,9.26
2023-02-18T13:19:00.211Z,8.81
2023-02-18T13:21:26.484Z,8.49
2023-02-18T13:23:52.729Z,8.46
2023-02-18T13:26:19.014Z,8.53
2023-02-18T13:28:45.280Z,8.46
2023-02-18T13:31:11.948Z,8.97
2023-02-18T13:33:38.631Z,8.26
2023-02-18T13:36:05.017Z,8.72
2023-02-18T13:38:32.968Z,8.34
2023-02-18T13:41:00.892Z,7.92
2023-02-18T13:43:27.175Z,8.19
2023-02-18T13:45:53.501Z,8.06
2023-02-18T13:48:19.780Z,8.22
2023-02-18T13:50:46.055Z,8.71
2023-02-18T13:53:12.309Z,8.84
2023-02-18T13:55:38.614Z,9.32
2023-02-18T13:58:04.860Z,9.37
2023-02-18T14:00:31.156Z,9.01
2023-02-18T14:02:57.486Z,9.31
2023-02-18T14:05:23.787Z,9.36
2023-02-18T14:07:50.065Z,8.97
2023-02-18T14:10:16.350Z,9.15
2023-02-18T14:12:42.615Z,9.26
2023-02-18T14:15:08.922Z,9.07
2023-02-18T14:17:35.204Z,8.70
2023-02-18T14:20:01.532Z,9.39
2023-02-18T14:22:27.804Z,9.17
2023-02-18T14:24:54.079Z,9.67
2023-02-18T14:27:20.338Z,9.83
2023-02-18T14:29:46.635Z,9.54
2023-02-18T14:32:13.001Z,9.22
2023-02-18T14:34:39.374Z,9.26
2023-02-18T14:37:05.621Z,9.73
2023-02-18T14:39:31.889Z,9.41
2023-02-18T14:41:58.250Z,9.86
2023-02-18T14:44:24.510Z,10.47
2023-02-18T14:46:50.765Z,10.20
2023-02-18T14:49:17.126Z,10.30
2023-02-18T14:51:43.399Z,10.78
2023-02-18T14:54:10.646Z,10.45
2023-02-18T14:56:38.086Z,10.48
2023-02-18T14:59:04.436Z,10.59
2023-02-18T15:01:30.710Z,10.25
2023-02-18T15:03:57.156Z,9.87
2023-02-18T15:06:23.473Z,10.20
2023-02-18T15:08:49.758Z,9.96
2023-02-18T15:11:16.011Z,9.65
2023-02-18T15:13:42.261Z,10.30
2023-02-18T15:16:08.916Z,10.23
2023-02-18T15:18:35.412Z,10.34
2023-02-18T15:21:01.952Z,10.21
2023-02-18T15:23:28.299Z,9.32
2023-02-18T15:25:54.608Z,9.42
2023-02-18T15:28:21.063Z,9.60
2023-02-18T15:30:47.609Z,9.73
2023-02-18T15:33:13.895Z,9.42
2023-02-18T15:35:40.178Z,9.57
2023-02-18T15:38:06.425Z,10.26
2023-02-18T15:40:32.709Z,11.21
2023-02-18T15:42:58.996Z,11.49
2023-02-18T15:45:25.244Z,11.04
2023-02-18T15:47:51.537Z,11.31
2023-02-18T15:50:17.798Z,11.83
2023-02-18T15:52:44.076Z,11.72
2023-02-18T15:55:10.398Z,11.23
2023-02-18T15:57:36.666Z,11.61
2023-02-18T16:00:02.953Z,11.20
2023-02-18T16:02:29.214Z,11.44
2023-02-18T16:04:55.617Z,11.24
2023-02-18T16:07:21.918Z,11.09
2023-02-18T16:09:48.202Z,11.21
2023-02-18T16:12:14.454Z,11.49
2023-02-18T16:14:40.743Z,11.71
2023-02-18T16:17:07.013Z,11.79
2023-02-18T16:19:33.280Z,12.32
2023-02-18T16:21:59.601Z,11.34
2023-02-18T16:24:25.888Z,12.22
2023-02-18T16:26:52.162Z,11.76
2023-02-18T16:29:18.439Z,11.27
2023-02-18T16:31:44.797Z,11.46
2023-02-18T16:34:11.220Z,11.27
2023-02-18T16:36:37.508Z,11.08
2023-02-18T16:39:03.798Z,11.20
2023-02-18T16:41:30.048Z,11.09
2023-02-18T16:43:56.324Z,10.72
2023-02-18T16:46:22.579Z,10.45
2023-02-18T16:48:48.844Z,9.73
2023-02-18T16:51:15.099Z,9.50
2023-02-18T16:53:41.370Z,9.72
2023-02-18T16:56:07.849Z,9.91
2023-02-18T16:58:34.301Z,9.97
2023-02-18T17:01:00.592Z,9.97
2023-02-18T17:03:26.855Z,10.00
2023-02-18T17:05:53.275Z,10.33
2023-02-18T17:08:19.560Z,12.59
2023-02-18T17:10:45.982Z,12.65
2023-02-18T17:13:12.240Z,11.93
2023-02-18T17:15:38.516Z,11.63
2023-02-18T17:18:04.808Z,11.79
2023-02-18T17:20:31.063Z,10.83
2023-02-18T17:22:57.339Z,10.99
2023-02-18T17:25:23.588Z,11.08
2023-02-18T17:27:49.861Z,10.34
2023-02-18T17:30:16.152Z,10.16
2023-02-18T17:32:42.422Z,10.50
2023-02-18T17:35:08.683Z,11.03
2023-02-18T17:37:34.981Z,10.68
2023-02-18T17:40:01.246Z,10.23
2023-02-18T17:42:27.523Z,10.52
2023-02-18T17:44:53.798Z,10.43
2023-02-18T17:47:20.096Z,10.44
2023-02-18T17:49:46.504Z,10.96
2023-02-18T17:52:12.786Z,11.67
2023-02-18T17:54:39.046Z,11.98
2023-02-18T17:57:05.361Z,12.51
2023-02-18T17:59:31.618Z,14.07
2023-02-18T18:01:57.866Z,12.00
2023-02-18T18:04:24.207Z,10.95
2023-02-18T18:06:50.497Z,10.92
2023-02-18T18:09:16.767Z,10.82
2023-02-18T18:11:43.066Z,10.84
2023-02-18T18:14:09.354Z,10.94
2023-02-18T18:16:35.651Z,13.12
2023-02-18T18:19:01.958Z,14.24
2023-02-18T18:21:28.218Z,14.47
2023-02-18T18:23:54.470Z,14.57
2023-02-18T18:26:20.758Z,14.40
2023-02-18T18:28:47.022Z,14.96
2023-02-18T18:31:13.616Z,17.92
2023-02-18T18:33:40.069Z,17.06
2023-02-18T18:36:06.359Z,22.06
2023-02-18T18:38:32.743Z,20.14
2023-02-18T18:40:59.039Z,19.78
2023-02-18T18:43:25.351Z,24.20
2023-02-18T18:45:51.676Z,18.29
2023-02-18T18:48:17.982Z,17.28
2023-02-18T18:50:44.281Z,17.64
2023-02-18T18:53:10.567Z,17.17
2023-02-18T18:55:36.837Z,18.31
2023-02-18T18:58:03.130Z,19.66
2023-02-18T19:00:29.420Z,17.36
2023-02-18T19:02:55.716Z,17.66
2023-02-18T19:05:22.068Z,23.13
2023-02-18T19:07:48.323Z,22.87
2023-02-18T19:10:14.606Z,20.11
2023-02-18T19:12:40.898Z,19.93
2023-02-18T19:15:07.148Z,19.58
2023-02-18T19:17:33.441Z,20.14
2023-02-18T19:19:59.729Z,20.01
2023-02-18T19:22:25.992Z,19.78
2023-02-18T19:24:52.268Z,19.51
2023-02-18T19:27:18.632Z,18.84
2023-02-18T19:29:44.892Z,18.65
2023-02-18T19:32:11.161Z,18.98
2023-02-18T19:34:37.439Z,21.79
2023-02-18T19:37:03.721Z,20.74
2023-02-18T19:39:30.000Z,19.39
2023-02-18T19:41:56.290Z,19.02
2023-02-18T19:44:22.602Z,17.53
2023-02-18T19:46:48.911Z,18.58
2023-02-18T19:49:15.190Z,18.03
2023-02-18T19:51:41.509Z,17.62
2023-02-18T19:54:07.768Z,17.94
2023-02-18T19:56:34.049Z,18.21
2023-02-18T19:59:00.320Z,18.70
2023-02-18T20:01:26.619Z,19.38
2023-02-18T20:03:52.928Z,20.62
2023-02-18T20:06:19.235Z,20.24
2023-02-18T20:08:45.536Z,22.05
2023-02-18T20:11:12.018Z,21.59
2023-02-18T20:13:38.394Z,20.27
2023-02-18T20:16:04.711Z,20.93
2023-02-18T20:18:31.039Z,20.35
2023-02-18T20:20:57.316Z,21.86
2023-02-18T20:23:23.589Z,28.75
2023-02-18T20:25:49.890Z,29.41
2023-02-18T20:28:16.184Z,24.36
2023-02-18T20:30:42.510Z,22.39
2023-02-18T20:33:08.804Z,21.20
2023-02-18T20:35:35.107Z,19.94
2023-02-18T20:38:01.369Z,19.61
2023-02-18T20:40:27.626Z,19.26
2023-02-18T20:42:53.928Z,18.99
2023-02-18T20:45:20.212Z,20.50
2023-02-18T20:47:46.493Z,21.17
2023-02-18T20:50:12.774Z,20.82
2023-02-18T20:52:39.062Z,20.80
2023-02-18T20:55:05.339Z,21.19
2023-02-18T20:57:31.603Z,21.08
2023-02-18T20:59:57.897Z,21.63
2023-02-18T21:02:24.213Z,21.94
2023-02-18T21:04:50.526Z,21.04
2023-02-18T21:07:16.791Z,20.60
2023-02-18T21:09:43.052Z,20.28
2023-02-18T21:12:09.306Z,20.87
2023-02-18T21:14:35.576Z,21.09
2023-02-18T21:17:01.865Z,21.43
2023-02-18T21:19:28.137Z,21.74
2023-02-18T21:21:54.438Z,22.10
2023-02-18T21:24:20.710Z,21.99
2023-02-18T21:26:46.973Z,21.94
2023-02-18T21:29:14.640Z,22.10
2023-02-18T21:31:41.940Z,21.31
2023-02-18T21:34:08.234Z,20.15
2023-02-18T21:36:34.504Z,19.85
2023-02-18T21:39:00.758Z,19.51
2023-02-18T21:41:27.011Z,19.69
2023-02-18T21:43:53.289Z,20.19
2023-02-18T21:46:19.559Z,19.49
2023-02-18T21:48:45.888Z,19.73
2023-02-18T21:51:12.161Z,19.61
2023-02-18T21:53:38.430Z,19.60
2023-02-18T21:56:04.698Z,19.50
2023-02-18T21:58:30.977Z,20.59
2023-02-18T22:00:57.277Z,21.11
2023-02-18T22:03:23.543Z,20.65
2023-02-18T22:05:49.793Z,21.05
2023-02-18T22:08:16.154Z,20.91
2023-02-18T22:10:42.397Z,21.10
2023-02-18T22:13:08.750Z,20.63
2023-02-18T22:15:35.020Z,21.16
2023-02-18T22:18:01.275Z,20.51
2023-02-18T22:20:27.537Z,20.72
2023-02-18T22:22:53.809Z,19.78
2023-02-18T22:25:20.133Z,19.51
2023-02-18T22:27:46.396Z,19.85
2023-02-18T22:30:12.690Z,20.20
2023-02-18T22:32:38.981Z,20.16
2023-02-18T22:35:05.266Z,20.31
2023-02-18T22:37:31.536Z,20.03
2023-02-18T22:39:57.806Z,20.19
2023-02-18T22:42:24.119Z,20.47
2023-02-18T22:44:50.429Z,20.38
2023-02-18T22:47:16.733Z,19.83
2023-02-18T22:49:42.993Z,20.24
2023-02-18T22:52:09.306Z,19.97
2023-02-18T22:54:35.569Z,20.15
2023-02-18T22:57:01.859Z,20.12
2023-02-18T22:59:28.158Z,20.15
2023-02-18T23:01:54.501Z,19.67
2023-02-18T23:04:20.923Z,19.47
2023-02-18T23:06:47.325Z,19.00
2023-02-18T23:09:13.634Z,18.12
2023-02-18T23:11:39.889Z,18.90
2023-02-18T23:14:06.173Z,18.71
2023-02-18T23:16:32.581Z,18.31
2023-02-18T23:18:58.906Z,18.64
2023-02-18T23:21:25.383Z,18.72
2023-02-18T23:23:51.691Z,18.07
2023-02-18T23:26:17.990Z,18.54
2023-02-18T23:28:44.247Z,18.56
2023-02-18T23:31:10.903Z,18.12
2023-02-18T23:33:37.375Z,17.55
2023-02-18T23:36:03.661Z,17.95
2023-02-18T23:38:29.917Z,17.42
2023-02-18T23:40:56.185Z,16.43
2023-02-18T23:43:22.437Z,16.78
2023-02-18T23:45:48.776Z,16.29
2023-02-18T23:48:15.144Z,16.65
2023-02-18T23:50:41.405Z,15.96
2023-02-18T23:53:07.705Z,16.07
2023-02-18T23:55:34.042Z,15.88
2023-02-18T23:58:00.322Z,16.43
